Time;durP1;ratioP1;P1;durP2;ratioP2;P2;SDS_P1;SDS_P2;PMS_P1;PMS_P2;Temp;Humidity;BMP_temperature;BMP_pressure;BME280_temperature;BME280_humidity;BME280_pressure;Samples;Min_cycle;Max_cycle;Signal;HPM_P1;HPM_P2
2023/05/07 00:01:33;;;;;;;14.48;5.65;;;12.70;99.90;;;;;;5035623;28;20473;-63
2023/05/07 00:03:59;;;;;;;10.95;5.57;;;12.70;99.90;;;;;;5033895;28;20050;-62
2023/05/07 00:06:26;;;;;;;7.20;5.22;;;12.70;99.90;;;;;;5035543;28;20554;-62
2023/05/07 00:08:52;;;;;;;7.10;4.90;;;12.70;99.90;;;;;;5035593;28;20088;-62
2023/05/07 00:11:17;;;;;;;9.50;4.88;;;12.70;99.90;;;;;;5035118;28;20045;-63
2023/05/07 00:13:43;;;;;;;10.52;5.53;;;12.50;99.90;;;;;;5035414;28;20037;-62
2023/05/07 00:16:08;;;;;;;9.60;5.60;;;12.60;99.90;;;;;;5035375;28;20071;-62
2023/05/07 00:18:34;;;;;;;8.63;5.55;;;12.60;99.90;;;;;;5034999;28;20401;-63
2023/05/07 00:20:59;;;;;;;10.60;6.03;;;12.60;99.90;;;;;;5035248;28;20164;-62
2023/05/07 00:23:25;;;;;;;8.57;5.53;;;12.60;99.90;;;;;;5035120;28;20473;-62
2023/05/07 00:25:51;;;;;;;11.63;5.97;;;12.60;99.90;;;;;;5035244;28;20049;-62
2023/05/07 00:28:16;;;;;;;8.45;5.60;;;12.60;99.90;;;;;;5035197;28;20046;-62
2023/05/07 00:30:42;;;;;;;9.63;5.68;;;12.50;99.90;;;;;;5035171;28;20037;-62
2023/05/07 00:33:07;;;;;;;10.13;5.88;;;12.60;99.90;;;;;;5033606;28;20151;-62
2023/05/07 00:35:33;;;;;;;11.77;6.10;;;12.50;99.90;;;;;;5035007;28;20041;-62
2023/05/07 00:37:58;;;;;;;12.80;6.38;;;12.50;99.90;;;;;;5034959;28;20405;-62
2023/05/07 00:40:24;;;;;;;8.15;5.30;;;12.50;99.90;;;;;;5034702;28;20117;-62
2023/05/07 00:42:50;;;;;;;10.25;6.13;;;12.50;99.90;;;;;;5033270;28;20473;-62
2023/05/07 00:45:16;;;;;;;9.25;5.72;;;12.40;99.90;;;;;;5034885;28;20040;-62
2023/05/07 00:47:42;;;;;;;11.93;6.25;;;12.40;99.90;;;;;;5033721;28;20080;-62
2023/05/07 00:50:10;;;;;;;12.73;6.53;;;12.40;99.90;;;;;;5034411;28;20037;-62
2023/05/07 00:52:37;;;;;;;12.85;7.53;;;12.40;99.90;;;;;;5034746;28;20124;-62
2023/05/07 00:55:06;;;;;;;9.40;6.63;;;12.30;99.90;;;;;;5034665;28;20084;-62
2023/05/07 00:57:40;;;;;;;11.73;6.07;;;12.30;99.90;;;;;;5034328;28;20044;-62
2023/05/07 01:00:11;;;;;;;9.73;6.40;;;12.30;99.90;;;;;;5033988;28;20034;-62
2023/05/07 01:02:37;;;;;;;10.95;5.80;;;12.30;99.90;;;;;;5033951;28;20054;-62
2023/05/07 01:05:05;;;;;;;13.05;6.95;;;12.30;99.90;;;;;;5034539;28;20045;-62
2023/05/07 01:07:32;;;;;;;11.75;6.45;;;12.20;99.90;;;;;;5033174;28;20136;-62
2023/05/07 01:09:58;;;;;;;15.23;6.88;;;13.20;99.90;;;;;;5034404;28;20493;-62
2023/05/07 01:12:25;;;;;;;11.38;7.20;;;12.80;99.90;;;;;;5034106;28;20121;-62
2023/05/07 01:14:51;;;;;;;12.60;6.50;;;12.20;99.90;;;;;;5034293;28;20073;-62
2023/05/07 01:17:17;;;;;;;15.55;6.75;;;12.70;99.90;;;;;;5034196;28;20045;-62
2023/05/07 01:19:44;;;;;;;11.50;6.32;;;12.10;99.90;;;;;;5034126;28;20037;-62
2023/05/07 01:22:14;;;;;;;17.77;8.13;;;12.00;99.90;;;;;;5034006;28;20481;-62
2023/05/07 01:24:41;;;;;;;9.82;6.28;;;12.00;99.90;;;;;;5034096;28;20037;-62
2023/05/07 01:27:06;;;;;;;10.25;6.15;;;12.60;99.90;;;;;;5034104;28;20045;-62
2023/05/07 01:29:32;;;;;;;13.13;6.93;;;11.80;99.90;;;;;;5033965;28;20041;-62
2023/05/07 01:32:00;;;;;;;11.38;6.85;;;11.90;99.90;;;;;;5033962;28;20033;-62
2023/05/07 01:34:28;;;;;;;14.45;7.43;;;11.90;99.90;;;;;;5033882;28;20076;-62
2023/05/07 01:36:55;;;;;;;11.52;6.53;;;13.20;99.90;;;;;;5033893;28;20064;-62
2023/05/07 01:39:23;;;;;;;11.45;6.57;;;11.90;99.90;;;;;;5033523;28;20080;-62
2023/05/07 01:41:49;;;;;;;10.38;6.93;;;11.90;99.90;;;;;;5033821;28;20120;-62
2023/05/07 01:44:16;;;;;;;9.93;6.63;;;11.80;99.90;;;;;;5033667;28;20041;-62
2023/05/07 01:46:42;;;;;;;14.48;7.13;;;11.80;99.90;;;;;;5033319;28;20041;-62
2023/05/07 01:49:08;;;;;;;12.35;7.10;;;11.70;99.90;;;;;;5033646;28;20053;-62
2023/05/07 01:51:34;;;;;;;10.15;6.93;;;12.80;99.90;;;;;;5033582;28;20038;-61
2023/05/07 01:54:00;;;;;;;11.10;7.10;;;11.70;99.90;;;;;;5032086;28;20045;-62
2023/05/07 01:56:25;;;;;;;17.92;7.10;;;11.70;99.90;;;;;;5033272;28;20044;-61
2023/05/07 01:58:52;;;;;;;10.35;7.13;;;11.60;99.90;;;;;;5033441;28;20397;-62
2023/05/07 02:01:18;;;;;;;13.00;7.47;;;11.60;99.90;;;;;;5033388;28;20041;-61
2023/05/07 02:03:43;;;;;;;16.40;7.40;;;11.60;99.90;;;;;;5033016;28;20064;-61
2023/05/07 02:06:09;;;;;;;13.30;7.75;;;11.60;99.90;;;;;;5033337;28;20046;-61
2023/05/07 02:08:35;;;;;;;16.85;8.18;;;11.60;99.90;;;;;;5033295;28;20402;-61
2023/05/07 02:11:01;;;;;;;13.80;7.72;;;12.00;99.90;;;;;;5032691;28;20497;-61
2023/05/07 02:13:29;;;;;;;16.33;8.77;;;11.50;99.90;;;;;;5033190;28;20489;-61
2023/05/07 02:15:55;;;;;;;15.68;8.98;;;11.50;99.90;;;;;;5033274;28;20037;-61
2023/05/07 02:18:20;;;;;;;13.38;7.85;;;11.50;99.90;;;;;;5032879;28;20047;-61
2023/05/07 02:20:46;;;;;;;21.75;9.15;;;11.50;99.90;;;;;;5033225;28;20037;-61
2023/05/07 02:23:11;;;;;;;17.30;8.77;;;11.40;99.90;;;;;;5033068;28;20041;-61
2023/05/07 02:25:37;;;;;;;17.38;9.82;;;11.40;99.90;;;;;;5033075;28;20049;-61
2023/05/07 02:28:03;;;;;;;16.05;9.73;;;11.30;99.90;;;;;;5033067;28;20038;-61
2023/05/07 02:30:28;;;;;;;15.15;8.57;;;11.30;99.90;;;;;;5032663;28;20116;-61
2023/05/07 02:32:54;;;;;;;19.27;9.48;;;11.30;99.90;;;;;;5032973;28;20112;-61
2023/05/07 02:35:20;;;;;;;21.55;10.05;;;11.30;99.90;;;;;;5033024;28;20053;-61
2023/05/07 02:37:46;;;;;;;15.45;9.18;;;11.30;99.90;;;;;;5033004;28;20033;-61
2023/05/07 02:40:12;;;;;;;17.08;9.52;;;11.20;99.90;;;;;;5032662;28;20094;-61
2023/05/07 02:42:37;;;;;;;20.23;9.15;;;11.20;99.90;;;;;;5031271;28;20046;-61
2023/05/07 02:45:03;;;;;;;13.30;7.97;;;11.20;99.90;;;;;;5031784;28;20044;-61
2023/05/07 02:47:29;;;;;;;16.73;9.68;;;11.20;99.90;;;;;;5032534;28;20081;-61
2023/05/07 02:49:55;;;;;;;19.73;10.18;;;11.40;99.90;;;;;;5032575;28;20034;-61
2023/05/07 02:52:21;;;;;;;23.15;11.25;;;11.20;99.90;;;;;;5032470;28;20052;-61
2023/05/07 02:54:47;;;;;;;18.17;9.10;;;12.00;99.90;;;;;;5032582;28;20072;-61
2023/05/07 02:57:12;;;;;;;13.60;9.27;;;11.20;99.90;;;;;;5032800;28;20127;-61
2023/05/07 02:59:38;;;;;;;16.73;9.63;;;11.20;99.90;;;;;;5032752;28;20029;-61
2023/05/07 03:02:03;;;;;;;19.17;9.88;;;11.20;99.90;;;;;;5032732;28;20144;-61
2023/05/07 03:04:29;;;;;;;19.73;10.30;;;11.20;99.90;;;;;;5032226;28;20583;-61
2023/05/07 03:06:55;;;;;;;14.88;9.32;;;11.20;99.90;;;;;;5032379;28;20033;-61
2023/05/07 03:09:20;;;;;;;18.42;10.25;;;11.20;99.90;;;;;;5031424;28;20045;-61
2023/05/07 03:11:46;;;;;;;20.05;9.95;;;11.20;99.90;;;;;;5031096;28;20045;-61
2023/05/07 03:14:11;;;;;;;18.10;10.20;;;11.20;99.90;;;;;;5032313;28;20041;-61
2023/05/07 03:16:38;;;;;;;15.52;8.80;;;11.20;99.90;;;;;;5032543;28;20041;-61
2023/05/07 03:19:03;;;;;;;20.25;9.90;;;11.10;99.90;;;;;;5032608;28;20041;-61
2023/05/07 03:21:30;;;;;;;20.63;9.77;;;11.10;99.90;;;;;;5032550;28;20472;-61
2023/05/07 03:23:56;;;;;;;17.83;10.10;;;11.10;99.90;;;;;;5035858;28;20072;-61
2023/05/07 03:26:22;;;;;;;20.02;10.10;;;11.10;99.90;;;;;;5034902;28;20033;-61
2023/05/07 03:28:47;;;;;;;20.92;10.63;;;11.10;99.90;;;;;;5036218;28;20037;-61
2023/05/07 03:31:13;;;;;;;20.10;10.38;;;11.00;99.90;;;;;;5036144;28;20065;-61
2023/05/07 03:33:55;;;;;;;22.17;10.10;;;11.00;99.90;;;;;;5036094;28;20338;-61
2023/05/07 03:36:22;;;;;;;20.00;10.40;;;11.10;99.90;;;;;;5036088;28;20045;-61
2023/05/07 03:38:48;;;;;;;19.50;11.75;;;11.00;99.90;;;;;;5035967;28;20041;-61
2023/05/07 03:41:14;;;;;;;18.10;10.68;;;11.00;99.90;;;;;;5035972;28;20034;-61
2023/05/07 03:43:39;;;;;;;17.50;10.07;;;11.00;99.90;;;;;;5035840;28;20091;-61
2023/05/07 03:46:05;;;;;;;14.18;8.60;;;11.00;99.90;;;;;;5035567;28;20516;-61
2023/05/07 03:48:31;;;;;;;16.48;9.60;;;11.00;99.90;;;;;;5035588;28;20033;-61
2023/05/07 03:50:57;;;;;;;16.63;9.10;;;11.00;99.90;;;;;;5035802;28;20488;-61
2023/05/07 03:53:23;;;;;;;19.55;9.65;;;11.00;99.90;;;;;;5035772;28;20037;-61
2023/05/07 03:55:49;;;;;;;19.98;9.15;;;11.00;99.90;;;;;;5035761;28;20045;-61
2023/05/07 03:58:15;;;;;;;18.50;10.23;;;11.00;99.90;;;;;;5034231;28;20464;-61
2023/05/07 04:00:41;;;;;;;17.15;9.02;;;11.00;99.90;;;;;;5035593;28;20116;-61
2023/05/07 04:03:07;;;;;;;18.70;9.23;;;11.00;99.90;;;;;;5035260;28;20065;-62
2023/05/07 04:05:32;;;;;;;16.38;8.80;;;10.90;99.90;;;;;;5035510;28;20392;-61
2023/05/07 04:07:59;;;;;;;19.65;9.05;;;11.20;99.90;;;;;;5035493;28;20044;-61
2023/05/07 04:10:24;;;;;;;17.92;10.55;;;11.00;99.90;;;;;;5035449;28;20041;-61
2023/05/07 04:12:50;;;;;;;16.25;8.63;;;11.00;99.90;;;;;;5035450;28;20033;-61
2023/05/07 04:15:16;;;;;;;16.10;9.20;;;10.90;99.90;;;;;;5035175;28;20033;-61
2023/05/07 04:17:42;;;;;;;17.00;9.35;;;10.90;99.90;;;;;;5035410;28;20064;-61
2023/05/07 04:20:13;;;;;;;16.90;9.00;;;11.00;99.90;;;;;;5035003;28;20073;-61
2023/05/07 04:22:39;;;;;;;18.08;9.10;;;11.00;99.90;;;;;;5035209;28;20036;-61
2023/05/07 04:25:05;;;;;;;13.30;8.32;;;10.90;99.90;;;;;;5035233;28;20033;-61
2023/05/07 04:27:32;;;;;;;21.00;9.02;;;10.90;99.90;;;;;;5035164;28;20037;-61
2023/05/07 04:29:57;;;;;;;14.93;8.98;;;10.90;99.90;;;;;;5035071;28;20469;-61
2023/05/07 04:32:24;;;;;;;25.35;8.90;;;10.90;99.90;;;;;;5033487;28;20056;-61
2023/05/07 04:34:50;;;;;;;14.55;8.52;;;11.40;99.90;;;;;;5034147;28;20076;-61
2023/05/07 04:37:16;;;;;;;17.63;9.57;;;10.90;99.90;;;;;;5034986;28;20069;-61
2023/05/07 04:39:41;;;;;;;15.65;8.57;;;10.90;99.90;;;;;;5034973;28;20038;-63
2023/05/07 04:42:08;;;;;;;18.13;9.15;;;10.90;99.90;;;;;;5034837;28;20067;-61
2023/05/07 04:44:35;;;;;;;12.38;7.85;;;10.90;99.90;;;;;;5034539;28;20050;-61
2023/05/07 04:47:00;;;;;;;14.55;7.93;;;10.90;99.90;;;;;;5034607;28;20041;-62
2023/05/07 04:49:26;;;;;;;18.10;8.30;;;10.90;99.90;;;;;;5034750;28;20083;-61
2023/05/07 04:51:52;;;;;;;13.07;9.00;;;10.90;99.90;;;;;;5034558;28;20044;-61
2023/05/07 04:54:17;;;;;;;16.25;7.68;;;10.80;99.90;;;;;;5033359;28;20509;-61
2023/05/07 04:56:43;;;;;;;16.20;7.57;;;11.00;99.90;;;;;;5034380;28;20041;-61
2023/05/07 04:59:09;;;;;;;13.13;7.97;;;11.00;99.90;;;;;;5034645;28;20041;-61
2023/05/07 05:01:34;;;;;;;16.50;8.23;;;11.00;99.90;;;;;;5034204;28;20033;-61
2023/05/07 05:04:00;;;;;;;11.70;8.10;;;11.40;99.90;;;;;;5034119;28;20180;-61
2023/05/07 05:06:26;;;;;;;15.13;8.10;;;11.00;99.90;;;;;;5034460;28;20045;-61
2023/05/07 05:08:51;;;;;;;17.15;8.05;;;11.00;99.90;;;;;;5034438;28;20550;-62
2023/05/07 05:11:17;;;;;;;13.75;8.00;;;11.00;99.90;;;;;;5034375;28;20038;-62
2023/05/07 05:13:43;;;;;;;16.92;8.35;;;11.30;99.90;;;;;;5034310;28;20041;-61
2023/05/07 05:16:08;;;;;;;13.77;8.00;;;11.10;99.90;;;;;;5034283;28;20496;-62
2023/05/07 05:18:34;;;;;;;12.00;8.07;;;11.00;99.90;;;;;;5033966;28;20477;-61
2023/05/07 05:21:00;;;;;;;13.70;7.40;;;11.00;99.90;;;;;;5034194;28;20041;-61
2023/05/07 05:23:27;;;;;;;13.50;8.05;;;11.00;99.90;;;;;;5034060;28;20128;-61
2023/05/07 05:25:57;;;;;;;15.32;8.13;;;11.00;99.90;;;;;;5034146;28;20378;-61
2023/05/07 05:28:23;;;;;;;13.60;7.65;;;11.30;99.90;;;;;;5034084;28;20037;-61
2023/05/07 05:30:49;;;;;;;14.00;8.32;;;11.00;99.90;;;;;;5034021;28;20040;-61
2023/05/07 05:33:14;;;;;;;13.50;7.38;;;12.30;99.90;;;;;;5033959;28;20044;-62
2023/05/07 05:35:40;;;;;;;12.98;7.55;;;11.10;99.90;;;;;;5033889;28;20099;-61
2023/05/07 05:38:06;;;;;;;10.75;7.07;;;11.10;99.90;;;;;;5033933;28;20064;-61
2023/05/07 05:40:32;;;;;;;14.98;8.00;;;11.10;99.90;;;;;;5033781;28;20072;-61
2023/05/07 05:42:57;;;;;;;10.98;7.32;;;11.10;99.90;;;;;;5032387;28;20049;-61
2023/05/07 05:45:23;;;;;;;9.73;7.20;;;11.10;99.90;;;;;;5033174;28;20033;-62
2023/05/07 05:47:48;;;;;;;15.75;7.63;;;11.10;99.90;;;;;;5033224;28;20123;-61
2023/05/07 05:50:14;;;;;;;12.60;7.13;;;11.10;99.90;;;;;;5033675;28;20397;-62
2023/05/07 05:52:40;;;;;;;12.07;7.28;;;11.20;99.90;;;;;;5033284;28;20048;-62
2023/05/07 05:55:06;;;;;;;13.32;7.53;;;11.20;99.90;;;;;;5033525;28;20042;-61
2023/05/07 05:57:32;;;;;;;12.77;7.97;;;11.20;99.90;;;;;;5033544;28;20481;-61
2023/05/07 05:59:58;;;;;;;11.02;7.18;;;11.20;99.90;;;;;;5033577;28;20046;-61
2023/05/07 06:02:23;;;;;;;11.88;7.32;;;11.00;99.90;;;;;;5033229;28;20033;-61
2023/05/07 06:04:49;;;;;;;14.25;7.50;;;11.20;99.90;;;;;;5033464;28;20045;-61
2023/05/07 06:07:15;;;;;;;11.55;7.30;;;11.30;99.90;;;;;;5033425;28;20049;-62
2023/05/07 06:09:40;;;;;;;14.88;7.65;;;11.10;99.90;;;;;;5033390;28;20121;-61
2023/05/07 06:12:06;;;;;;;12.75;8.15;;;11.40;99.90;;;;;;5033762;28;20039;-62
2023/05/07 06:14:31;;;;;;;14.50;8.18;;;11.40;99.90;;;;;;5033265;28;20041;-63
2023/05/07 06:16:57;;;;;;;13.18;7.80;;;11.40;99.90;;;;;;5033279;28;20079;-62
2023/05/07 06:19:23;;;;;;;12.55;7.28;;;11.50;99.90;;;;;;5032793;28;20128;-63
2023/05/07 06:21:50;;;;;;;12.75;8.13;;;11.40;99.90;;;;;;5031553;28;20041;-63
2023/05/07 06:24:15;;;;;;;14.25;7.82;;;11.50;99.90;;;;;;5033358;28;20041;-63
2023/05/07 06:26:41;;;;;;;15.57;8.43;;;11.50;99.90;;;;;;5033106;28;20037;-65
2023/05/07 06:29:06;;;;;;;12.20;7.45;;;11.50;99.90;;;;;;5033034;28;20033;-62
2023/05/07 06:31:32;;;;;;;13.95;7.40;;;11.50;99.90;;;;;;5032985;28;20389;-62
2023/05/07 06:33:58;;;;;;;16.20;8.45;;;11.40;99.90;;;;;;5033024;28;20140;-62
2023/05/07 06:36:24;;;;;;;13.63;7.75;;;11.90;99.90;;;;;;5032741;28;20045;-62
2023/05/07 06:38:50;;;;;;;13.90;6.90;;;11.40;99.90;;;;;;5032726;28;20041;-62
2023/05/07 06:41:15;;;;;;;13.95;8.80;;;11.00;99.90;;;;;;5032948;28;20040;-64
2023/05/07 06:43:41;;;;;;;18.38;8.65;;;11.40;99.90;;;;;;5032907;28;20038;-62
2023/05/07 06:46:07;;;;;;;14.48;8.40;;;12.10;99.90;;;;;;5031689;28;20045;-60
2023/05/07 06:48:32;;;;;;;13.65;8.10;;;11.40;99.90;;;;;;5032847;28;20374;-64
2023/05/07 06:50:58;;;;;;;15.57;8.23;;;11.40;99.90;;;;;;5032816;28;20040;-60
2023/05/07 06:53:24;;;;;;;11.30;8.35;;;11.40;99.90;;;;;;5032532;28;20076;-61
2023/05/07 06:55:50;;;;;;;16.52;9.02;;;11.30;99.90;;;;;;5032873;28;20459;-62
2023/05/07 06:58:15;;;;;;;12.55;7.82;;;11.90;99.90;;;;;;5035226;28;20037;-62
2023/05/07 07:00:41;;;;;;;14.07;8.52;;;11.40;99.90;;;;;;5036750;28;20038;-62
2023/05/07 07:03:07;;;;;;;17.63;8.88;;;11.40;99.90;;;;;;5036363;28;20064;-63
2023/05/07 07:05:32;;;;;;;15.60;9.05;;;11.40;99.90;;;;;;5035103;28;20397;-65
2023/05/07 07:07:58;;;;;;;15.27;7.70;;;11.50;99.90;;;;;;5036535;28;20040;-64
2023/05/07 07:10:24;;;;;;;13.88;8.70;;;12.00;99.90;;;;;;5036215;28;20040;-63
2023/05/07 07:12:50;;;;;;;14.07;8.18;;;11.70;99.90;;;;;;5036556;28;20147;-64
2023/05/07 07:15:16;;;;;;;16.40;9.02;;;11.70;99.90;;;;;;5035213;28;20050;-63
2023/05/07 07:17:41;;;;;;;18.40;9.43;;;11.70;99.90;;;;;;5036478;28;20098;-63
2023/05/07 07:20:08;;;;;;;15.65;9.52;;;11.80;99.90;;;;;;5036308;28;20393;-63
2023/05/07 07:22:34;;;;;;;15.30;8.85;;;11.70;99.90;;;;;;5035956;28;20507;-63
2023/05/07 07:24:59;;;;;;;14.88;8.65;;;12.10;99.90;;;;;;5036028;28;20076;-62
2023/05/07 07:27:25;;;;;;;16.08;8.25;;;11.80;99.90;;;;;;5035890;28;20397;-63
2023/05/07 07:29:51;;;;;;;16.02;9.55;;;11.90;99.90;;;;;;5036152;28;20037;-63
2023/05/07 07:32:16;;;;;;;14.05;8.82;;;12.00;99.90;;;;;;5036172;28;20130;-64
2023/05/07 07:34:42;;;;;;;16.55;9.55;;;12.10;99.90;;;;;;5035099;28;20038;-63
2023/05/07 07:37:07;;;;;;;16.55;9.30;;;12.10;99.90;;;;;;5035700;28;20083;-64
2023/05/07 07:39:33;;;;;;;13.77;8.40;;;12.10;99.90;;;;;;5035978;28;20092;-64
2023/05/07 07:41:59;;;;;;;16.08;8.70;;;12.10;99.90;;;;;;5035888;28;20117;-64
2023/05/07 07:44:25;;;;;;;16.00;8.07;;;12.10;99.90;;;;;;5035819;28;20048;-64
2023/05/07 07:46:51;;;;;;;18.38;8.82;;;12.10;99.90;;;;;;5035809;28;20108;-64
2023/05/07 07:49:17;;;;;;;18.55;9.05;;;12.10;99.90;;;;;;5035713;28;20378;-64
2023/05/07 07:51:43;;;;;;;14.68;8.63;;;12.00;99.90;;;;;;5034579;28;20033;-64
2023/05/07 07:54:08;;;;;;;16.17;9.35;;;12.10;99.90;;;;;;5035467;28;20094;-64
2023/05/07 07:56:34;;;;;;;14.93;8.23;;;12.10;99.90;;;;;;5034117;28;20075;-63
2023/05/07 07:59:00;;;;;;;17.25;9.95;;;12.10;99.90;;;;;;5035368;28;20036;-64
2023/05/07 08:01:26;;;;;;;18.48;9.30;;;12.20;99.90;;;;;;5017578;28;20489;-64
2023/05/07 08:03:52;;;;;;;15.30;9.02;;;12.30;99.90;;;;;;5033827;28;20088;-65
2023/05/07 08:06:18;;;;;;;16.75;8.98;;;12.90;99.90;;;;;;5035560;28;20045;-64
2023/05/07 08:08:44;;;;;;;16.77;8.77;;;12.40;99.90;;;;;;5034518;28;20041;-64
2023/05/07 08:11:10;;;;;;;18.35;10.10;;;12.40;97.40;;;;;;5035364;28;20086;-65
2023/05/07 08:13:36;;;;;;;15.57;8.38;;;12.40;95.80;;;;;;5035390;28;20544;-72
2023/05/07 08:16:02;;;;;;;18.45;9.82;;;12.40;91.80;;;;;;5035380;28;20049;-71
2023/05/07 08:18:28;;;;;;;19.83;9.43;;;12.50;92.00;;;;;;5035280;28;20125;-65
2023/05/07 08:20:54;;;;;;;14.50;8.50;;;12.60;91.90;;;;;;5035280;28;20045;-63
2023/05/07 08:23:20;;;;;;;13.65;8.18;;;13.40;86.50;;;;;;5034814;28;20452;-64
2023/05/07 08:25:46;;;;;;;15.43;9.20;;;12.80;88.50;;;;;;5035203;28;20046;-64
2023/05/07 08:28:12;;;;;;;10.60;7.68;;;12.80;83.30;;;;;;5035057;28;20510;-63
2023/05/07 08:30:37;;;;;;;19.65;8.95;;;12.80;76.50;;;;;;5034949;28;20033;-63
2023/05/07 08:33:03;;;;;;;15.90;8.20;;;12.70;38.10;;;;;;5035049;28;20037;-62
2023/05/07 08:35:28;;;;;;;14.63;8.70;;;12.80;33.90;;;;;;5034862;28;20075;-64
2023/05/07 08:37:54;;;;;;;14.52;9.43;;;12.80;11.60;;;;;;5035363;28;20061;-63
2023/05/07 08:40:24;;;;;;;19.95;9.57;;;13.00;8.90;;;;;;5034800;28;20544;-63
2023/05/07 08:42:56;;;;;;;12.73;8.73;;;12.90;3.00;;;;;;5034779;28;20448;-63
2023/05/07 08:45:22;;;;;;;15.75;8.52;;;12.90;2.90;;;;;;5034727;28;20044;-63
2023/05/07 08:47:52;;;;;;;15.82;8.32;;;13.00;28.20;;;;;;5034753;28;20091;-62
2023/05/07 08:50:19;;;;;;;12.60;7.70;;;13.20;21.20;;;;;;5034677;28;20037;-62
2023/05/07 08:52:45;;;;;;;15.32;8.70;;;13.30;1.00;;;;;;5034505;28;20140;-63
2023/05/07 08:55:12;;;;;;;15.05;8.45;;;13.30;1.00;;;;;;5034477;28;20504;-63
2023/05/07 08:57:38;;;;;;;14.35;8.38;;;13.40;1.00;;;;;;5034346;28;20492;-63
2023/05/07 09:00:06;;;;;;;14.75;8.27;;;13.50;1.00;;;;;;5034265;28;20052;-63
2023/05/07 09:02:32;;;;;;;13.60;7.95;;;13.60;1.00;;;;;;5034014;28;20069;-63
2023/05/07 09:04:58;;;;;;;13.57;8.20;;;13.60;99.90;;;;;;5034204;28;20048;-62
2023/05/07 09:07:24;;;;;;;12.27;8.10;;;13.60;85.20;;;;;;5034220;28;20117;-62
2023/05/07 09:09:50;;;;;;;17.08;9.05;;;13.60;99.90;;;;;;5034159;28;20090;-62
2023/05/07 09:12:17;;;;;;;12.93;8.40;;;13.40;99.90;;;;;;5034022;28;20542;-61
2023/05/07 09:14:44;;;;;;;13.63;8.32;;;13.70;99.90;;;;;;5032531;28;20049;-63
2023/05/07 09:17:09;;;;;;;14.38;8.43;;;13.90;96.90;;;;;;5032902;28;20212;-63
2023/05/07 09:19:35;;;;;;;11.43;7.35;;;14.00;99.90;;;;;;5034031;28;20041;-65
2023/05/07 09:22:02;;;;;;;14.68;7.72;;;14.20;99.90;;;;;;5033804;28;20048;-63
2023/05/07 09:24:30;;;;;;;15.02;8.18;;;13.90;1.00;;;;;;5033509;28;20045;-63
2023/05/07 09:27:00;;;;;;;13.57;7.53;;;14.20;99.90;;;;;;5033963;28;20037;-62
2023/05/07 09:29:28;;;;;;;13.10;8.57;;;14.20;99.90;;;;;;5033879;28;20136;-62
2023/05/07 09:31:55;;;;;;;12.07;7.60;;;14.10;99.90;;;;;;5033754;28;20051;-63
2023/05/07 09:34:20;;;;;;;12.95;7.40;;;14.10;99.90;;;;;;5032232;28;20048;-62
2023/05/07 09:36:47;;;;;;;12.65;7.80;;;14.20;99.90;;;;;;5033558;28;20041;-62
2023/05/07 09:39:13;;;;;;;13.57;7.93;;;14.20;99.90;;;;;;5033808;28;20051;-62
2023/05/07 09:41:49;;;;;;;12.68;7.53;;;14.60;99.90;;;;;;5033734;28;20068;-62
2023/05/07 09:44:15;;;;;;;12.00;7.68;;;14.60;96.60;;;;;;5032201;28;20057;-62
2023/05/07 09:46:43;;;;;;;14.07;7.72;;;14.60;99.90;;;;;;5033657;28;20037;-62
2023/05/07 09:49:15;;;;;;;13.45;8.07;;;14.60;1.00;;;;;;5033474;28;20042;-62
2023/05/07 09:51:47;;;;;;;12.32;7.00;;;14.70;1.00;;;;;;5033298;28;20053;-62
2023/05/07 09:54:13;;;;;;;13.15;7.25;;;14.90;99.90;;;;;;5033523;28;20038;-62
2023/05/07 09:56:41;;;;;;;13.85;7.50;;;14.80;99.90;;;;;;5033362;28;20129;-62
2023/05/07 09:59:10;;;;;;;14.85;8.52;;;14.80;1.00;;;;;;5033318;28;20057;-63
2023/05/07 10:01:36;;;;;;;13.27;7.63;;;14.90;99.90;;;;;;5032946;28;20045;-62
2023/05/07 10:04:04;;;;;;;12.25;7.78;;;14.90;99.90;;;;;;5032905;28;20068;-61
2023/05/07 10:06:30;;;;;;;13.93;7.65;;;15.00;99.90;;;;;;5031915;28;20128;-62
2023/05/07 10:08:56;;;;;;;12.32;7.10;;;15.10;57.60;;;;;;5033205;28;20041;-63
2023/05/07 10:11:22;;;;;;;9.90;6.82;;;14.90;99.90;;;;;;5032824;28;20495;-62
2023/05/07 10:13:48;;;;;;;12.50;7.43;;;15.40;99.90;;;;;;5032854;28;20099;-62
2023/05/07 10:16:14;;;;;;;12.68;7.20;;;15.40;99.90;;;;;;5032958;28;20481;-62
2023/05/07 10:18:40;;;;;;;11.57;7.20;;;15.50;1.00;;;;;;5031670;28;20469;-63
2023/05/07 10:21:10;;;;;;;12.30;7.63;;;15.50;99.90;;;;;;5032958;28;20052;-62
2023/05/07 10:23:38;;;;;;;10.10;6.87;;;15.50;99.90;;;;;;5015049;28;20056;-62
2023/05/07 10:26:07;;;;;;;11.07;7.45;;;15.70;92.30;;;;;;5033144;28;20107;-62
2023/05/07 10:28:37;;;;;;;12.45;7.20;;;15.70;1.00;;;;;;5033119;28;20034;-63
2023/05/07 10:31:41;;;;;;;12.70;6.97;;;15.90;1.00;;;;;;5032801;28;20124;-61
2023/05/07 10:34:15;;;;;;;16.30;7.45;;;16.10;1.00;;;;;;5032178;28;20704;-62
2023/05/07 10:36:42;;;;;;;11.30;6.72;;;16.20;99.90;;;;;;5032912;28;20051;-63
2023/05/07 10:39:07;;;;;;;11.52;7.22;;;16.90;99.90;;;;;;5033000;28;20073;-64
2023/05/07 10:41:33;;;;;;;13.63;7.07;;;16.50;99.90;;;;;;5032861;28;20072;-63
2023/05/07 10:44:01;;;;;;;14.23;7.68;;;16.60;99.90;;;;;;5033258;28;20073;-62
2023/05/07 10:46:27;;;;;;;11.25;7.47;;;16.90;99.90;;;;;;5032375;28;20030;-63
2023/05/07 10:49:12;;;;;;;11.95;7.35;;;16.70;99.90;;;;;;5032694;28;20041;-62
2023/05/07 10:51:39;;;;;;;11.77;6.72;;;16.80;99.90;;;;;;5032126;28;20045;-62
2023/05/07 10:54:11;;;;;;;10.98;6.97;;;16.50;99.90;;;;;;5032691;28;20037;-62
2023/05/07 10:56:43;;;;;;;10.85;7.22;;;16.90;99.90;;;;;;5032481;28;20053;-63
2023/05/07 10:59:20;;;;;;;14.95;6.88;;;16.50;1.00;;;;;;5032557;28;20049;-60
2023/05/07 11:01:52;;;;;;;10.90;6.88;;;16.60;11.80;;;;;;5032352;28;20073;-63
2023/05/07 11:04:24;;;;;;;13.30;7.43;;;16.80;50.70;;;;;;5032119;28;20412;-62
2023/05/07 11:07:08;;;;;;;10.95;7.07;;;16.70;99.90;;;;;;5032611;28;20057;-61
2023/05/07 11:09:52;;;;;;;21.88;9.13;;;16.70;1.00;;;;;;5032593;28;20029;-61
2023/05/07 11:12:36;;;;;;;57.15;12.93;;;16.80;7.00;;;;;;5032507;28;20041;-62
2023/05/07 11:15:12;;;;;;;15.05;7.35;;;16.90;1.00;;;;;;5032595;28;20116;-62
2023/05/07 11:18:05;;;;;;;13.95;7.13;;;17.10;1.00;;;;;;5032562;28;20037;-62
2023/05/07 11:20:54;;;;;;;12.55;7.32;;;16.90;1.00;;;;;;5028247;28;20048;-63
2023/05/07 11:23:35;;;;;;;14.50;7.25;;;17.00;1.00;;;;;;5032471;28;20077;-62
2023/05/07 11:26:04;;;;;;;13.73;6.20;;;17.00;99.90;;;;;;5032569;28;20099;-62
2023/05/07 11:28:35;;;;;;;9.55;7.22;;;17.10;1.00;;;;;;5032393;28;20477;-62
2023/05/07 11:31:01;;;;;;;;;;;16.70;1.00;;;;;;5032805;28;20041;-62
2023/05/07 11:33:27;;;;;;;11.88;8.05;;;16.90;99.90;;;;;;5030880;28;19944;-61
2023/05/07 11:35:53;;;;;;;10.32;6.50;;;16.80;99.90;;;;;;5032114;28;20108;-62
2023/05/07 11:38:19;;;;;;;10.40;7.30;;;16.80;99.90;;;;;;5032047;28;20439;-62
2023/05/07 11:41:00;;;;;;;10.43;7.10;;;16.70;99.90;;;;;;5030819;28;20045;-62
2023/05/07 11:43:26;;;;;;;11.60;6.95;;;17.20;99.90;;;;;;5031638;28;20049;-62
2023/05/07 11:45:52;;;;;;;11.60;6.57;;;17.30;1.00;;;;;;5035939;28;20037;-62
2023/05/07 11:48:18;;;;;;;12.55;6.57;;;16.80;1.00;;;;;;5035953;28;20044;-62
2023/05/07 11:51:01;;;;;;;16.85;7.40;;;16.50;1.00;;;;;;5035919;28;20172;-62
2023/05/07 11:53:34;;;;;;;12.93;6.07;;;16.90;99.90;;;;;;5035702;28;20060;-62
2023/05/07 11:56:00;;;;;;;10.48;6.38;;;17.00;1.00;;;;;;5035739;28;20374;-62
2023/05/07 11:58:26;;;;;;;9.73;6.70;;;17.10;99.90;;;;;;5035580;28;20053;-62
2023/05/07 12:00:53;;;;;;;11.48;6.40;;;17.80;99.90;;;;;;5035588;28;20043;-62
2023/05/07 12:03:19;;;;;;;10.68;6.93;;;17.30;1.00;;;;;;5034964;28;20127;-65
2023/05/07 12:05:46;;;;;;;8.65;5.95;;;17.30;99.90;;;;;;5035632;28;20487;-66
2023/05/07 12:08:18;;;;;;;13.10;6.95;;;17.50;1.00;;;;;;5035545;28;20048;-63
2023/05/07 12:10:45;;;;;;;9.75;6.22;;;17.50;99.90;;;;;;5034452;28;20053;-62
2023/05/07 12:13:21;;;;;;;13.35;7.22;;;17.50;99.90;;;;;;5035443;28;20037;-63
2023/05/07 12:15:55;;;;;;;13.18;7.03;;;17.40;99.90;;;;;;5035359;28;20049;-62
2023/05/07 12:18:21;;;;;;;10.93;6.97;;;17.50;99.90;;;;;;5035318;28;20124;-62
2023/05/07 12:20:47;;;;;;;12.15;6.88;;;18.20;99.90;;;;;;5035095;28;20481;-62
2023/05/07 12:23:14;;;;;;;10.05;6.35;;;17.60;99.90;;;;;;5035245;28;20033;-63
2023/05/07 12:25:47;;;;;;;12.65;7.22;;;17.70;99.90;;;;;;5033689;28;20052;-62
2023/05/07 12:28:15;;;;;;;12.77;6.93;;;17.80;99.90;;;;;;5035264;28;20385;-62
2023/05/07 12:30:42;;;;;;;13.10;6.97;;;17.70;99.90;;;;;;5034755;28;20038;-62
2023/05/07 12:33:08;;;;;;;9.15;6.05;;;;;;;;;;5035132;28;20042;-61
2023/05/07 12:35:41;;;;;;;13.07;7.13;;;18.40;99.90;;;;;;5035091;28;20427;-62
2023/05/07 12:38:12;;;;;;;11.00;6.30;;;18.40;99.90;;;;;;5034976;28;20116;-62